Time;durP1;ratioP1;P1;durP2;ratioP2;P2;SDS_P1;SDS_P2;PMS_P1;PMS_P2;Temp;Humidity;BMP_temperature;BMP_pressure;BME280_temperature;BME280_humidity;BME280_pressure;Samples;Min_cycle;Max_cycle;Signal;HPM_P1;HPM_P2
2023/01/20 00:01:37;;;;;;;8.50;2.60;;;;;;;17.02;56.21;98143.16;5097113;28;20188;-91
2023/01/20 00:04:05;;;;;;;6.07;2.30;;;;;;;17.04;55.88;98146.50;5096935;28;20639;-92
2023/01/20 00:06:31;;;;;;;12.20;3.00;;;;;;;16.88;56.46;98119.81;5115098;28;20180;-91
2023/01/20 00:08:59;;;;;;;7.87;2.63;;;;;;;16.91;56.33;98138.88;5114958;28;20243;-92
2023/01/20 00:11:25;;;;;;;6.73;2.20;;;;;;;16.75;56.99;98119.28;5096949;28;20186;-92
2023/01/20 00:14:03;;;;;;;5.67;2.30;;;;;;;16.80;57.10;98117.03;5096569;28;20856;-92
2023/01/20 00:16:30;;;;;;;6.67;2.23;;;;;;;16.90;56.54;98107.28;5114927;28;20160;-88
2023/01/20 00:18:56;;;;;;;4.30;2.13;;;;;;;16.85;56.67;98097.09;5114638;28;20176;-91
2023/01/20 00:21:22;;;;;;;5.50;1.97;;;;;;;16.69;56.81;98096.91;5096696;28;20560;-93
2023/01/20 00:23:48;;;;;;;8.00;2.23;;;;;;;16.78;56.67;98096.03;5097623;28;20705;-91
2023/01/20 00:26:16;;;;;;;5.17;2.30;;;;;;;16.95;56.10;98079.41;5097221;28;20293;-90
2023/01/20 00:28:43;;;;;;;9.07;2.70;;;;;;;17.00;55.92;98071.00;5096925;28;20180;-91
2023/01/20 00:31:26;;;;;;;9.50;2.53;;;;;;;16.80;56.22;98074.69;5096890;28;20206;-90
2023/01/20 00:33:53;;;;;;;5.20;1.83;;;;;;;16.87;56.03;98067.88;5096715;28;20179;-91
2023/01/20 00:36:20;;;;;;;7.40;2.33;;;;;;;16.84;55.84;98073.44;5096418;28;20176;-92
2023/01/20 00:38:46;;;;;;;9.63;2.50;;;;;;;16.70;56.61;98069.44;5114506;28;20167;-92
2023/01/20 00:41:15;;;;;;;4.73;1.70;;;;;;;16.70;57.29;98064.16;5097325;28;20196;-93
2023/01/20 00:43:44;;;;;;;10.40;3.47;;;;;;;16.69;57.36;98056.38;5097148;28;20183;-90
2023/01/20 00:46:13;;;;;;;5.23;2.20;;;;;;;16.65;57.91;98015.31;5114755;28;20190;-91
2023/01/20 00:48:38;;;;;;;6.07;2.40;;;;;;;16.62;58.06;98034.09;5096350;28;20175;-90
2023/01/20 00:51:08;;;;;;;5.60;2.37;;;;;;;16.59;58.15;98051.94;5096302;28;20183;-93
2023/01/20 00:53:33;;;;;;;7.37;2.43;;;;;;;16.70;58.21;98044.78;5114135;28;20183;-93
2023/01/20 00:55:59;;;;;;;7.87;2.83;;;;;;;16.65;58.44;98049.69;5114360;28;20180;-89
2023/01/20 00:58:24;;;;;;;11.67;3.03;;;;;;;16.51;58.86;98049.16;5096110;28;20198;-90
2023/01/20 01:00:57;;;;;;;8.90;2.67;;;;;;;16.41;59.18;98032.47;5096329;28;20198;-90
2023/01/20 01:03:31;;;;;;;8.57;2.97;;;;;;;16.46;59.31;98030.22;5096377;28;20250;-90
2023/01/20 01:06:08;;;;;;;10.70;2.63;;;;;;;16.48;58.21;98044.13;5095992;28;20160;-93
2023/01/20 01:08:34;;;;;;;3.43;1.57;;;;;;;16.43;57.10;98017.28;5113810;28;20172;-89
2023/01/20 01:11:00;;;;;;;3.40;1.47;;;;;;;16.50;56.55;98015.75;5115528;28;20182;-92
2023/01/20 01:13:28;;;;;;;8.63;2.03;;;;;;;16.48;55.96;97991.25;5118509;28;20177;-93
2023/01/20 01:15:54;;;;;;;8.27;1.73;;;;;;;16.44;56.41;97997.81;5118457;28;20167;-92
2023/01/20 01:18:19;;;;;;;9.50;2.63;;;;;;;16.48;56.61;97983.31;5099995;28;20190;-91
2023/01/20 01:20:45;;;;;;;9.00;2.17;;;;;;;16.40;57.76;97996.41;5117812;28;20648;-91
2023/01/20 01:23:12;;;;;;;5.27;2.27;;;;;;;16.28;58.61;97984.38;5099940;28;20191;-93
2023/01/20 01:25:38;;;;;;;3.77;2.03;;;;;;;16.27;58.95;97995.09;5100210;28;20719;-90
2023/01/20 01:28:04;;;;;;;8.67;1.93;;;;;;;16.24;58.95;97982.16;5118169;28;20271;-93
2023/01/20 01:30:33;;;;;;;7.93;3.23;;;;;;;16.16;59.09;97985.53;5118405;28;20567;-93
2023/01/20 01:33:01;;;;;;;7.70;2.30;;;;;;;16.28;58.49;98002.88;5118516;28;20171;-91
2023/01/20 01:35:32;;;;;;;7.97;2.33;;;;;;;16.36;58.18;97973.91;5118310;28;20180;-89
2023/01/20 01:37:57;;;;;;;6.27;2.47;;;;;;;16.35;58.40;97974.06;5117783;28;20202;-92
2023/01/20 01:40:23;;;;;;;13.07;4.37;;;;;;;16.32;58.86;97958.47;5099371;28;20227;-91
2023/01/20 01:42:48;;;;;;;5.37;2.73;;;;;;;16.35;57.92;97951.06;5117837;28;20214;-89
2023/01/20 01:45:25;;;;;;;10.70;2.43;;;;;;;16.43;57.54;97971.53;5117243;27;20217;-91
2023/01/20 01:48:02;;;;;;;9.13;2.77;;;;;;;16.46;57.16;97964.09;5117706;28;20381;-90
2023/01/20 01:50:47;;;;;;;5.90;3.13;;;;;;;16.31;57.31;97941.78;5099618;28;20220;-91
2023/01/20 01:53:13;;;;;;;7.63;2.40;;;;;;;16.27;57.63;97952.78;5099149;28;20175;-89
2023/01/20 01:55:44;;;;;;;8.90;2.87;;;;;;;16.30;57.44;97945.38;5099697;28;20263;-89
2023/01/20 01:58:16;;;;;;;7.47;2.83;;;;;;;16.27;58.01;97948.31;5117372;28;20160;-89
2023/01/20 02:00:51;;;;;;;6.17;2.63;;;;;;;16.31;58.27;97944.41;5117248;28;20268;-91
2023/01/20 02:03:29;;;;;;;8.87;3.20;;;;;;;16.24;58.72;97930.13;5099322;28;20273;-92
2023/01/20 02:05:54;;;;;;;6.77;2.80;;;;;;;16.27;58.76;97943.03;5099051;28;20576;-90
2023/01/20 02:08:20;;;;;;;9.47;2.80;;;;;;;16.26;58.82;97945.81;5099230;28;20172;-92
2023/01/20 02:10:45;;;;;;;7.23;2.90;;;;;;;16.33;58.56;97974.19;5116740;28;20183;-89
2023/01/20 02:13:11;;;;;;;10.20;2.90;;;;;;;16.22;59.21;97984.94;5099571;28;20629;-91
2023/01/20 02:15:51;;;;;;;14.30;3.33;;;;;;;16.15;59.52;97983.84;5098821;28;20228;-89
2023/01/20 02:18:52;;;;;;;10.53;3.40;;;;;;;16.22;59.19;97992.06;5098901;28;20167;-92
2023/01/20 02:21:29;;;;;;;11.13;3.70;;;;;;;16.17;59.54;97997.75;5077003;28;20246;-92
2023/01/20 02:24:03;;;;;;;6.17;3.07;;;;;;;16.20;59.80;98010.69;5097975;28;20190;-92
2023/01/20 02:27:05;;;;;;;12.53;3.73;;;;;;;16.30;59.46;98019.41;5117013;28;20192;-94
2023/01/20 02:29:39;;;;;;;8.53;3.57;;;;;;;16.51;59.03;98022.69;5098658;28;20175;-90
2023/01/20 02:32:39;;;;;;;13.53;3.70;;;;;;;16.51;59.07;98030.63;5116792;28;20163;-91
2023/01/20 02:35:18;;;;;;;6.33;2.60;;;;;;;16.49;59.32;98040.53;5115951;28;20209;-88
2023/01/20 02:37:56;;;;;;;5.63;2.57;;;;;;;16.30;59.95;98040.56;5116444;28;20155;-90
2023/01/20 02:40:27;;;;;;;6.37;3.20;;;;;;;16.38;59.90;98051.28;5098096;28;20191;-95
2023/01/20 02:43:04;;;;;;;12.63;3.60;;;;;;;16.41;59.71;98050.16;5116503;28;20632;-92
2023/01/20 02:45:49;;;;;;;9.90;2.90;;;;;;;16.50;59.31;98068.66;5098222;28;20628;-91
2023/01/20 02:48:35;;;;;;;5.70;2.93;;;;;;;16.38;59.64;98059.22;5116167;28;20156;-89
2023/01/20 02:51:24;;;;;;;5.57;3.27;;;;;;;16.57;58.93;98061.00;5098015;28;20632;-92
2023/01/20 02:53:53;;;;;;;10.10;3.07;;;;;;;16.59;58.82;98083.69;5098573;28;20163;-90
2023/01/20 02:56:24;;;;;;;9.73;3.17;;;;;;;16.79;57.85;98079.19;5097970;28;20258;-91
2023/01/20 02:58:57;;;;;;;5.53;2.77;;;;;;;16.93;57.44;98078.69;5116258;28;20232;-91
2023/01/20 03:01:30;;;;;;;10.40;4.23;;;;;;;16.76;57.70;98081.28;5097727;28;20270;-89
2023/01/20 03:03:59;;;;;;;9.57;3.40;;;;;;;16.98;57.13;98072.97;5115881;28;20190;-90
2023/01/20 03:06:30;;;;;;;11.83;3.83;;;;;;;16.79;58.00;98088.94;5097931;28;20238;-92
2023/01/20 03:08:59;;;;;;;8.63;3.10;;;;;;;16.84;57.44;98094.63;5097604;28;20596;-89
2023/01/20 03:11:25;;;;;;;8.60;3.13;;;;;;;17.01;57.06;98096.50;5115555;28;20200;-90
2023/01/20 03:13:58;;;;;;;12.67;3.60;;;;;;;16.89;57.81;98089.72;5115719;28;20179;-91
2023/01/20 03:16:26;;;;;;;13.50;3.73;;;;;;;16.87;57.60;98092.53;5097769;28;20385;-90
2023/01/20 03:18:53;;;;;;;10.80;3.20;;;;;;;17.03;56.83;98113.09;5115313;28;20221;-89
2023/01/20 03:21:19;;;;;;;7.13;2.77;;;;;;;16.99;57.10;98117.81;5097176;28;20195;-89
2023/01/20 03:23:52;;;;;;;14.20;3.50;;;;;;;17.08;57.22;98102.88;5115182;28;20189;-90
2023/01/20 03:26:19;;;;;;;11.33;3.83;;;;;;;17.30;56.35;98109.59;5115180;28;20225;-90
2023/01/20 03:28:47;;;;;;;11.50;3.60;;;;;;;17.16;56.61;98103.00;5115124;28;20171;-91
2023/01/20 03:31:41;;;;;;;9.13;3.67;;;;;;;16.93;57.97;98125.50;5114969;28;20199;-89
2023/01/20 03:34:11;;;;;;;6.57;2.97;;;;;;;16.72;58.73;98120.41;5096763;28;20167;-89
2023/01/20 03:36:38;;;;;;;8.83;3.60;;;;;;;16.54;59.02;98127.41;5114868;28;20175;-88
2023/01/20 03:39:05;;;;;;;13.17;4.73;;;;;;;16.46;59.15;98120.16;5096854;28;20620;-90
2023/01/20 03:41:39;;;;;;;11.67;3.10;;;;;;;16.63;58.58;98133.69;5114679;28;20663;-89
2023/01/20 03:44:09;;;;;;;10.00;3.60;;;;;;;16.73;58.14;98148.56;5115229;28;20171;-89
2023/01/20 03:46:43;;;;;;;12.33;3.57;;;;;;;16.93;57.14;98149.31;5114736;28;20258;-89
2023/01/20 03:49:44;;;;;;;5.97;2.60;;;;;;;16.88;57.21;98148.91;5114899;28;20177;-89
2023/01/20 03:52:22;;;;;;;7.80;2.87;;;;;;;17.02;56.79;98145.81;5114569;28;20563;-88
2023/01/20 03:54:53;;;;;;;9.03;3.40;;;;;;;16.98;57.06;98152.41;5114819;28;20220;-88
2023/01/20 03:57:24;;;;;;;16.03;4.03;;;;;;;17.22;56.40;98147.41;5114798;28;20167;-88
2023/01/20 03:59:51;;;;;;;7.03;3.10;;;;;;;17.30;56.34;98130.78;5096376;28;20198;-92
2023/01/20 04:02:17;;;;;;;9.47;3.63;;;;;;;17.21;56.67;98127.22;5114381;28;20188;-89
2023/01/20 04:04:46;;;;;;;10.23;3.43;;;;;;;17.11;57.29;98121.13;5114640;28;20175;-89
2023/01/20 04:07:18;;;;;;;10.33;3.43;;;;;;;17.11;57.59;98110.53;5114374;28;20175;-90
2023/01/20 04:09:49;;;;;;;6.10;2.93;;;;;;;17.12;57.71;98114.84;5096386;28;20171;-89
2023/01/20 04:12:15;;;;;;;6.87;2.77;;;;;;;16.93;58.36;98112.25;5114582;28;20160;-91
2023/01/20 04:14:40;;;;;;;7.90;3.07;;;;;;;16.64;59.73;98120.28;5114130;28;20191;-90
2023/01/20 04:17:06;;;;;;;6.63;3.30;;;;;;;16.67;59.71;98111.22;5114221;28;20172;-89
2023/01/20 04:19:32;;;;;;;10.67;3.40;;;;;;;16.69;59.71;98115.44;5114102;28;20501;-90
2023/01/20 04:22:06;;;;;;;5.20;2.70;;;;;;;16.43;60.35;98107.22;5114282;28;20260;-88
2023/01/20 04:24:53;;;;;;;5.63;2.67;;;;;;;16.61;59.74;98098.59;5096365;28;20536;-88
2023/01/20 04:27:18;;;;;;;8.97;2.70;;;;;;;16.51;59.87;98088.00;5114218;28;20602;-88
2023/01/20 04:29:44;;;;;;;8.07;3.20;;;;;;;16.58;59.17;98092.63;5113904;28;20190;-88
2023/01/20 04:32:11;;;;;;;4.33;1.93;;;;;;;16.76;58.65;98078.63;5095931;28;20179;-89
2023/01/20 04:34:37;;;;;;;6.33;3.07;;;;;;;16.70;58.50;98079.19;5114049;28;20171;-89
2023/01/20 04:37:02;;;;;;;10.50;2.67;;;;;;;16.74;57.75;98075.31;5113743;28;20172;-89
2023/01/20 04:39:28;;;;;;;7.07;2.37;;;;;;;16.65;57.46;98087.56;5113746;28;20168;-91
2023/01/20 04:41:53;;;;;;;7.23;2.60;;;;;;;16.52;57.12;98072.03;5113687;28;20200;-89
2023/01/20 04:44:19;;;;;;;10.20;3.37;;;;;;;16.55;56.72;98063.81;5114008;28;20175;-89
2023/01/20 04:46:46;;;;;;;7.10;2.67;;;;;;;16.44;56.90;98053.34;5113288;28;20605;-88
2023/01/20 04:49:12;;;;;;;6.10;1.87;;;;;;;16.42;56.99;98055.31;5113581;28;20198;-90
2023/01/20 04:51:37;;;;;;;6.17;2.77;;;;;;;16.42;57.06;98055.31;5113883;28;20175;-88
2023/01/20 04:54:03;;;;;;;8.13;3.30;;;;;;;16.34;57.34;98055.19;5113512;28;20172;-89
2023/01/20 04:56:29;;;;;;;4.23;2.10;;;;;;;16.15;57.06;98047.28;5095457;28;20219;-88
2023/01/20 04:58:54;;;;;;;7.83;2.77;;;;;;;15.94;58.16;98038.69;5113395;28;20215;-89
2023/01/20 05:01:20;;;;;;;5.13;2.33;;;;;;;15.96;58.44;98036.72;5095537;28;20206;-93
2023/01/20 05:03:45;;;;;;;7.13;2.53;;;;;;;15.76;59.56;98016.59;5113739;28;20175;-92
2023/01/20 05:06:11;;;;;;;3.07;1.70;;;;;;;15.72;59.96;98023.97;5113442;28;20301;-89
2023/01/20 05:08:37;;;;;;;9.47;2.90;;;;;;;15.86;59.92;98004.19;5113967;28;20314;-90
2023/01/20 05:11:03;;;;;;;8.10;2.93;;;;;;;15.89;59.58;97990.72;5113404;28;20185;-90
2023/01/20 05:13:28;;;;;;;9.97;3.13;;;;;;;15.76;60.38;97987.53;5113360;28;20179;-90
2023/01/20 05:15:54;;;;;;;9.87;3.10;;;;;;;15.75;60.91;97989.34;5113657;28;20541;-88
2023/01/20 05:18:19;;;;;;;6.73;2.67;;;;;;;15.84;60.79;97995.59;5113423;28;20172;-91
2023/01/20 05:20:47;;;;;;;10.77;2.90;;;;;;;15.74;60.89;97994.78;5113308;28;20641;-91
2023/01/20 05:23:18;;;;;;;10.43;2.83;;;;;;;15.61;60.84;97996.88;5113967;28;20187;-92
2023/01/20 05:25:53;;;;;;;6.00;3.10;;;;;;;15.79;60.31;98003.94;5095850;28;20225;-89
2023/01/20 05:28:18;;;;;;;9.67;3.20;;;;;;;15.97;59.55;98017.28;5113890;28;20517;-92
2023/01/20 05:30:44;;;;;;;9.63;3.03;;;;;;;16.12;58.88;98015.84;5095486;28;20264;-91
2023/01/20 05:33:10;;;;;;;13.23;3.30;;;;;;;16.11;59.18;98030.06;5095713;28;20270;-92
2023/01/20 05:35:39;;;;;;;8.73;3.83;;;;;;;16.31;58.79;98041.41;5113352;28;20260;-90
2023/01/20 05:38:05;;;;;;;9.57;3.17;;;;;;;15.96;60.86;98037.56;5113484;28;20180;-90
2023/01/20 05:40:30;;;;;;;5.33;2.67;;;;;;;16.12;61.72;98031.72;5095199;28;20714;-89
2023/01/20 05:43:02;;;;;;;6.27;2.40;;;;;;;15.92;63.94;98023.00;5113119;28;20629;-91
2023/01/20 05:45:31;;;;;;;7.03;3.23;;;;;;;15.43;65.09;98024.91;5113674;28;20179;-89
2023/01/20 05:47:58;;;;;;;9.10;1.80;;;;;;;15.63;64.50;98021.31;5093033;28;20183;-88
2023/01/20 05:50:25;;;;;;;5.47;1.80;;;;;;;15.45;64.56;98026.44;5095132;28;20256;-88
2023/01/20 05:52:51;;;;;;;4.83;2.03;;;;;;;15.49;64.86;98043.69;5113034;28;20241;-89
2023/01/20 05:55:17;;;;;;;5.60;1.53;;;;;;;15.42;65.03;98037.28;5113552;28;20180;-89
2023/01/20 05:57:42;;;;;;;3.60;1.60;;;;;;;15.37;65.77;98036.84;5115789;28;20221;-89
2023/01/20 06:00:08;;;;;;;4.13;1.60;;;;;;;15.45;65.92;98028.25;5117325;28;20227;-89
2023/01/20 06:02:34;;;;;;;5.57;1.93;;;;;;;15.28;66.97;98021.81;5098737;28;20205;-88
2023/01/20 06:05:00;;;;;;;7.90;2.37;;;;;;;15.47;66.42;98026.31;5116717;28;20174;-90
2023/01/20 06:07:29;;;;;;;7.10;2.60;;;;;;;15.45;66.98;98030.88;5116945;28;20190;-89
2023/01/20 06:09:54;;;;;;;3.70;1.80;;;;;;;15.31;67.64;98017.09;5116644;28;20183;-88
2023/01/20 06:12:20;;;;;;;12.57;3.53;;;;;;;15.44;67.36;98034.47;5116538;28;20173;-89
2023/01/20 06:14:45;;;;;;;8.60;2.27;;;;;;;15.41;67.61;98017.09;5116479;28;20269;-88
2023/01/20 06:17:11;;;;;;;8.20;2.60;;;;;;;15.46;67.82;98017.56;5116666;28;20179;-88
2023/01/20 06:19:36;;;;;;;8.03;2.53;;;;;;;15.36;68.27;98012.25;5098443;28;20537;-89
2023/01/20 06:22:02;;;;;;;10.27;3.37;;;;;;;15.27;68.32;98005.16;5116286;28;20187;-90
2023/01/20 06:24:28;;;;;;;8.67;2.80;;;;;;;15.43;67.89;98028.38;5116360;28;20593;-90
2023/01/20 06:26:53;;;;;;;11.20;2.90;;;;;;;15.54;67.67;98020.34;5116272;28;20195;-88
2023/01/20 06:29:19;;;;;;;9.60;2.50;;;;;;;15.41;68.28;98011.81;5116202;28;20207;-89
2023/01/20 06:31:44;;;;;;;15.63;4.30;;;;;;;15.31;68.65;98014.47;5116289;28;20191;-88
2023/01/20 06:34:10;;;;;;;11.50;3.17;;;;;;;15.31;68.70;98011.81;5116457;28;20183;-89
2023/01/20 06:36:36;;;;;;;8.67;3.70;;;;;;;15.18;69.00;98008.63;5116573;28;20267;-88
2023/01/20 06:39:02;;;;;;;14.73;2.60;;;;;;;15.33;68.38;98017.78;5116366;28;20632;-88
2023/01/20 06:41:27;;;;;;;4.37;2.33;;;;;;;15.24;67.70;98017.78;5116296;28;20199;-90
2023/01/20 06:43:53;;;;;;;6.90;2.40;;;;;;;15.21;67.47;98021.53;5116322;28;20190;-90
2023/01/20 06:46:18;;;;;;;7.00;2.53;;;;;;;15.34;66.54;98019.47;5116241;28;20319;-88
2023/01/20 06:48:45;;;;;;;6.30;1.70;;;;;;;15.17;66.49;98009.56;5115964;28;20572;-89
2023/01/20 06:51:13;;;;;;;2.57;1.40;;;;;;;15.28;66.05;98005.97;5097875;28;20179;-90
2023/01/20 06:53:38;;;;;;;7.33;2.83;;;;;;;15.45;65.31;98000.03;5115845;28;20172;-87
2023/01/20 06:56:04;;;;;;;6.90;2.67;;;;;;;15.44;65.29;98008.91;5115784;28;20198;-87
2023/01/20 06:58:31;;;;;;;3.90;1.80;;;;;;;15.32;66.53;98013.50;5115711;28;20183;-89
2023/01/20 07:01:02;;;;;;;3.87;1.67;;;;;;;15.30;67.11;98009.34;5097790;28;20545;-88
2023/01/20 07:03:27;;;;;;;5.17;2.07;;;;;;;15.44;66.97;98006.28;5115634;28;20227;-88
2023/01/20 07:06:13;;;;;;;3.67;1.97;;;;;;;15.37;67.92;98008.66;5115603;28;20556;-90
2023/01/20 07:08:38;;;;;;;6.10;1.80;;;;;;;15.48;68.06;98005.06;5115204;28;20160;-89
2023/01/20 07:11:04;;;;;;;5.47;2.00;;;;;;;15.55;69.28;98000.06;5097384;28;20659;-87
2023/01/20 07:13:29;;;;;;;6.20;1.90;;;;;;;15.27;71.41;97997.25;5097558;28;20199;-88
2023/01/20 07:15:54;;;;;;;4.30;1.57;;;;;;;15.32;72.05;97997.66;5115388;28;20172;-87
2023/01/20 07:18:20;;;;;;;6.20;2.20;;;;;;;15.22;72.88;97996.00;5115622;28;20185;-88
2023/01/20 07:20:45;;;;;;;6.37;2.47;;;;;;;15.23;73.46;97990.56;5115250;28;20207;-89
2023/01/20 07:23:11;;;;;;;7.60;2.30;;;;;;;15.31;73.44;97989.88;5115173;28;20736;-88
2023/01/20 07:25:39;;;;;;;7.93;2.77;;;;;;;15.21;73.51;97976.66;5115760;28;20179;-92
2023/01/20 07:28:05;;;;;;;5.60;2.63;;;;;;;15.06;73.95;97970.13;5115128;28;20757;-87
2023/01/20 07:30:30;;;;;;;7.87;1.70;;;;;;;15.17;73.93;97969.16;5115129;28;20181;-89
2023/01/20 07:32:56;;;;;;;7.13;2.37;;;;;;;15.13;73.88;97963.31;5115128;28;20178;-89
2023/01/20 07:35:21;;;;;;;5.07;1.30;;;;;;;14.88;73.64;97974.41;5115499;28;20251;-92
2023/01/20 07:37:47;;;;;;;5.43;1.30;;;;;;;14.76;74.04;97972.81;5115391;28;20659;-89
2023/01/20 07:40:12;;;;;;;2.80;1.10;;;;;;;14.66;74.09;97967.53;5114819;28;20612;-87
2023/01/20 07:42:38;;;;;;;3.67;1.30;;;;;;;14.77;73.11;97961.31;5114988;28;20623;-88
2023/01/20 07:45:04;;;;;;;7.00;1.93;;;;;;;14.77;73.05;97956.03;5114788;28;20174;-88
2023/01/20 07:47:30;;;;;;;7.57;2.70;;;;;;;14.65;73.63;97960.56;5114754;28;20264;-88
2023/01/20 07:49:55;;;;;;;2.13;1.00;;;;;;;14.80;72.67;97955.78;5114722;28;20522;-89
2023/01/20 07:52:23;;;;;;;3.93;1.47;;;;;;;14.81;72.30;97962.69;5096924;28;20189;-93
2023/01/20 07:54:49;;;;;;;5.30;1.57;;;;;;;14.92;72.62;97965.22;5096832;28;20674;-87
2023/01/20 07:57:14;;;;;;;5.50;2.07;;;;;;;15.10;71.90;97982.06;5096676;28;20274;-89
2023/01/20 07:59:40;;;;;;;5.83;2.07;;;;;;;15.23;71.21;97987.06;5114650;28;20278;-92
2023/01/20 08:02:07;;;;;;;4.80;1.30;;;;;;;15.20;70.92;97975.00;5114789;28;20218;-88
2023/01/20 08:04:33;;;;;;;5.73;1.93;;;;;;;15.50;70.35;97979.34;5114589;28;20216;-90
2023/01/20 08:06:58;;;;;;;3.07;1.33;;;;;;;15.86;69.55;97981.25;5114569;28;20684;-92
2023/01/20 08:09:24;;;;;;;6.47;1.47;;;;;;;15.97;68.65;97986.41;5114468;28;20210;-88
2023/01/20 08:11:49;;;;;;;4.53;1.63;;;;;;;16.12;67.36;97992.06;5096472;28;20179;-88
2023/01/20 08:14:14;;;;;;;3.03;1.60;;;;;;;16.24;66.50;97980.34;5114526;28;20250;-89
2023/01/20 08:16:42;;;;;;;3.30;1.10;;;;;;;16.31;65.11;97989.38;5114598;28;20176;-90
2023/01/20 08:19:11;;;;;;;4.23;1.40;;;;;;;16.07;64.98;97991.66;5096709;28;20244;-96
2023/01/20 08:21:36;;;;;;;2.43;0.90;;;;;;;15.86;66.04;97978.63;5095394;28;20191;-89
2023/01/20 08:24:04;;;;;;;2.57;1.20;;;;;;;15.82;66.01;97993.09;5114071;28;20191;-88
2023/01/20 08:26:30;;;;;;;5.27;1.50;;;;;;;15.70;66.65;97982.81;5114343;28;20183;-88
2023/01/20 08:29:08;;;;;;;2.63;1.00;;;;;;;15.53;66.62;97983.53;5114037;28;20172;-88
2023/01/20 08:31:34;;;;;;;3.10;1.47;;;;;;;15.61;66.38;97988.94;5113931;28;20179;-88
2023/01/20 08:34:01;;;;;;;2.93;1.10;;;;;;;15.71;65.70;97982.69;5114420;28;20239;-91
2023/01/20 08:36:30;;;;;;;4.43;1.13;;;;;;;15.66;65.31;97973.50;5114028;28;20195;-88
2023/01/20 08:38:57;;;;;;;4.30;1.30;;;;;;;15.53;66.05;97983.53;5114092;28;20266;-90
2023/01/20 08:41:28;;;;;;;5.70;1.30;;;;;;;15.50;65.84;97989.06;5113773;28;20198;-90
2023/01/20 08:43:54;;;;;;;3.07;1.20;;;;;;;15.63;65.95;97997.56;5113871;28;20172;-87
2023/01/20 08:46:21;;;;;;;3.07;1.30;;;;;;;15.70;66.02;98036.47;5095849;28;20183;-87
2023/01/20 08:48:48;;;;;;;4.47;1.80;;;;;;;15.83;66.46;98049.41;5096102;28;20186;-90
2023/01/20 08:51:17;;;;;;;3.07;1.60;;;;;;;16.02;67.97;98081.13;5114209;28;20320;-88
2023/01/20 08:53:42;;;;;;;8.30;1.90;;;;;;;15.94;69.12;98081.81;5114189;28;20194;-91
2023/01/20 08:56:09;;;;;;;6.17;2.10;;;;;;;15.91;68.14;98057.47;5113698;28;20650;-91
2023/01/20 08:58:34;;;;;;;5.50;1.63;;;;;;;16.17;67.33;98055.91;5095636;28;20198;-90
2023/01/20 09:01:00;;;;;;;5.03;1.83;;;;;;;16.16;66.24;98074.56;5095867;28;20210;-90
2023/01/20 09:03:26;;;;;;;7.03;1.10;;;;;;;16.11;64.35;98069.72;5096076;28;20184;-90
2023/01/20 09:05:51;;;;;;;7.30;1.17;;;;;;;16.08;64.65;98069.16;5113762;28;20170;-91
2023/01/20 09:08:18;;;;;;;4.07;1.10;;;;;;;15.94;64.52;98080.97;5113984;28;20258;-95
2023/01/20 09:10:45;;;;;;;3.83;0.63;;;;;;;15.52;65.75;98079.56;5096047;28;20190;-91
2023/01/20 09:13:13;;;;;;;3.83;1.20;;;;;;;15.50;65.86;98092.06;5113748;28;20175;-92
2023/01/20 09:15:38;;;;;;;4.03;1.23;;;;;;;15.29;66.95;98106.19;5096065;28;20179;-91
2023/01/20 09:18:04;;;;;;;1.77;0.73;;;;;;;15.38;67.68;98093.97;5113633;28;20545;-91
2023/01/20 09:20:29;;;;;;;4.30;1.00;;;;;;;15.48;67.77;98083.47;5113727;28;20182;-91
2023/01/20 09:22:55;;;;;;;2.60;0.80;;;;;;;15.50;68.21;98071.78;5113541;28;20255;-90
2023/01/20 09:25:21;;;;;;;1.37;0.70;;;;;;;15.49;68.53;98095.69;5096093;28;20204;-91
2023/01/20 09:27:47;;;;;;;3.97;1.20;;;;;;;15.55;69.31;98100.41;5096029;28;20233;-91
2023/01/20 09:30:12;;;;;;;3.73;1.67;;;;;;;15.53;69.28;98097.09;5095736;28;20175;-91
2023/01/20 09:32:38;;;;;;;4.40;1.00;;;;;;;15.53;68.70;98075.97;5116514;28;20526;-91
2023/01/20 09:35:04;;;;;;;2.73;1.20;;;;;;;15.40;68.41;98089.38;5117805;28;20179;-91
2023/01/20 09:43:55;;;;;;;3.30;1.10;;;;;;;15.20;69.42;98124.59;5117983;28;20274;-91
2023/01/20 09:46:32;;;;;;;2.07;0.63;;;;;;;15.16;68.87;98139.91;5117550;28;20177;-90
2023/01/20 09:55:29;;;;;;;4.23;1.07;;;;;;;15.15;68.46;98116.25;5117327;28;20165;-91
2023/01/20 09:58:11;;;;;;;3.50;1.20;;;;;;;15.19;67.76;98084.19;5088264;28;20546;-90
2023/01/20 10:00:42;;;;;;;4.00;1.13;;;;;;;15.09;67.94;98070.16;5117310;28;20265;-91
2023/01/20 10:03:17;;;;;;;6.07;1.57;;;;;;;15.05;68.58;98060.81;5117386;28;20178;-92
2023/01/20 10:05:47;;;;;;;3.07;1.20;;;;;;;15.05;67.63;98060.81;5117160;28;20165;-91
2023/01/20 10:08:32;;;;;;;2.47;0.60;;;;;;;14.84;65.82;98069.75;5117135;28;20173;-91
2023/01/20 10:11:07;;;;;;;3.20;1.30;;;;;;;14.62;65.93;98060.25;5117294;28;20185;-91
2023/01/20 10:13:56;;;;;;;2.70;0.77;;;;;;;14.73;65.88;98017.94;5117378;28;20161;-91
2023/01/20 10:16:37;;;;;;;3.23;1.07;;;;;;;14.72;66.38;98003.09;5052727;28;20516;-91
2023/01/20 10:20:08;;;;;;;;;;;;;;;;;;;;;
2023/01/20 10:22:57;;;;;;;4.20;1.10;;;;;;;14.81;71.38;97975.06;5117521;28;20192;-92
2023/01/20 10:25:40;;;;;;;3.13;1.17;;;;;;;14.53;72.99;97955.53;5098903;28;20182;-91
2023/01/20 10:28:12;;;;;;;2.13;1.03;;;;;;;14.84;72.20;97951.88;5098626;28;20248;-90
2023/01/20 10:30:38;;;;;;;3.30;1.13;;;;;;;14.90;71.44;97935.53;5098430;28;20170;-91
2023/01/20 10:33:13;;;;;;;2.97;0.70;;;;;;;14.59;71.32;97936.56;5098357;28;20177;-92
2023/01/20 10:35:43;;;;;;;2.50;0.90;;;;;;;14.71;70.40;97932.84;5116740;28;20239;-91
2023/01/20 10:38:37;;;;;;;3.50;0.60;;;;;;;14.55;69.38;97932.50;5098296;28;20590;-91
2023/01/20 10:41:14;;;;;;;1.83;0.70;;;;;;;14.37;68.90;97937.59;5087478;28;20264;-90
2023/01/20 10:43:40;;;;;;;2.80;0.70;;;;;;;14.38;68.12;97949.81;5115127;28;20160;-90
2023/01/20 10:46:33;;;;;;;1.63;0.60;;;;;;;14.30;68.16;97948.78;5115922;28;20218;-91
2023/01/20 10:50:01;;;;;;;1.63;0.53;;;;;;;14.26;69.27;97948.19;5116176;28;20290;-89
2023/01/20 10:53:06;;;;;;;1.73;0.60;;;;;;;13.99;69.08;97954.03;5097726;28;20193;-89
2023/01/20 10:55:49;;;;;;;1.53;0.40;;;;;;;14.02;69.58;97959.03;5097864;28;20169;-91
2023/01/20 10:58:22;;;;;;;2.33;0.60;;;;;;;13.95;69.15;97957.06;5115851;28;20227;-90
2023/01/20 11:00:49;;;;;;;4.37;0.97;;;;;;;13.63;68.90;97941.34;5098095;28;20627;-90
2023/01/20 11:03:19;;;;;;;1.43;0.53;;;;;;;13.80;68.73;97927.59;5097749;28;20191;-90
2023/01/20 11:05:46;;;;;;;0.87;0.40;;;;;;;13.61;68.86;97921.34;5097976;28;20611;-91
2023/01/20 11:08:18;;;;;;;1.93;0.70;;;;;;;13.55;69.21;97909.53;5115566;28;20259;-89
2023/01/20 11:10:46;;;;;;;1.57;0.63;;;;;;;13.55;69.91;97884.06;5116078;28;20170;-89
2023/01/20 11:13:11;;;;;;;2.53;1.10;;;;;;;13.74;69.23;97875.44;5115441;28;20189;-92
2023/01/20 11:15:43;;;;;;;1.37;0.63;;;;;;;13.67;68.76;97858.50;5097410;28;20181;-89
2023/01/20 11:18:14;;;;;;;2.57;0.90;;;;;;;13.81;68.73;97838.88;5115894;28;20179;-90
2023/01/20 11:20:59;;;;;;;1.47;0.60;;;;;;;14.03;69.21;97823.72;5115182;28;20196;-89
2023/01/20 11:23:29;;;;;;;0.93;0.50;;;;;;;13.83;70.30;97800.91;5096822;28;20276;-91
2023/01/20 11:26:00;;;;;;;2.43;0.50;;;;;;;13.94;70.06;97782.34;5097254;28;20291;-90
2023/01/20 11:28:33;;;;;;;1.00;0.30;;;;;;;14.07;70.33;97782.94;5097164;28;20190;-91
2023/01/20 11:30:59;;;;;;;0.83;0.40;;;;;;;14.24;70.25;97786.75;5115354;28;20519;-90
2023/01/20 11:33:27;;;;;;;2.00;0.70;;;;;;;14.24;70.78;97775.34;5115014;28;20177;-90
2023/01/20 11:36:15;;;;;;;2.27;0.70;;;;;;;14.47;70.81;97782.06;5115369;28;20180;-89
2023/01/20 11:38:45;;;;;;;1.13;0.60;;;;;;;14.54;70.92;97789.28;5115542;28;20241;-90
2023/01/20 11:41:27;;;;;;;1.67;0.70;;;;;;;14.54;70.45;97797.19;5115106;28;20642;-91
2023/01/20 11:43:58;;;;;;;1.57;0.57;;;;;;;14.83;70.63;97799.88;5115174;28;20173;-90
2023/01/20 11:46:30;;;;;;;1.60;0.50;;;;;;;15.08;69.01;97791.38;5115242;28;20178;-91
2023/01/20 11:49:12;;;;;;;1.70;0.50;;;;;;;15.07;68.58;97783.56;5115663;28;20254;-89
2023/01/20 11:51:52;;;;;;;2.33;0.67;;;;;;;15.33;67.14;97784.63;5096935;28;20236;-91
2023/01/20 11:54:26;;;;;;;1.90;0.50;;;;;;;15.63;66.67;97778.31;5114770;28;20195;-90
2023/01/20 11:56:57;;;;;;;1.47;0.53;;;;;;;15.64;65.95;97743.03;5115109;28;20163;-90
2023/01/20 11:59:29;;;;;;;1.77;0.60;;;;;;;15.70;65.62;97737.97;5114407;28;20218;-90
2023/01/20 12:02:05;;;;;;;4.47;1.13;;;;;;;15.55;65.86;97723.59;5114765;28;20676;-89